Aviation Digital Data Service (ADDS)

Output produced by METARs form (1138 UTC 17 December 2018)
found at http://aviationweather.gov/metar/data/
 
KLFT 171053Z AUTO 00000KT 8SM CLR 09/08 A3023 RMK AO2 SLP237 T00890083
KLFT 171120Z 1712/1812 VRB03KT P6SM BKN250 
     TEMPO 1712/1714 4SM BR OVC001 
     FM171400 VRB03KT P6SM BKN250 
     FM172000 23003KT P6SM BKN250